sensor_id;sensor_type;location;lat;lon;timestamp;pressure;altitude;pressure_sealevel;temperature;humidity
36222;BME280;22266;52.340;4.962;2023-12-20T00:01:24;101497.16;;;7.68;93.64
36222;BME280;22266;52.340;4.962;2023-12-20T00:03:50;101498.19;;;7.67;94.00
36222;BME280;22266;52.340;4.962;2023-12-20T00:06:17;101494.50;;;7.68;93.98
36222;BME280;22266;52.340;4.962;2023-12-20T00:08:44;101491.63;;;7.69;93.67
36222;BME280;22266;52.340;4.962;2023-12-20T00:11:10;101478.41;;;7.68;93.87
36222;BME280;22266;52.340;4.962;2023-12-20T00:13:37;101473.38;;;7.65;93.71
36222;BME280;22266;52.340;4.962;2023-12-20T00:16:03;101483.09;;;7.66;92.95
36222;BME280;22266;52.340;4.962;2023-12-20T00:18:30;101486.94;;;7.63;92.75
36222;BME280;22266;52.340;4.962;2023-12-20T00:20:56;101485.75;;;7.58;93.39
36222;BME280;22266;52.340;4.962;2023-12-20T00:23:23;101489.88;;;7.52;93.38
36222;BME280;22266;52.340;4.962;2023-12-20T00:25:49;101492.06;;;7.57;92.91
36222;BME280;22266;52.340;4.962;2023-12-20T00:28:16;101489.41;;;7.57;92.85
36222;BME280;22266;52.340;4.962;2023-12-20T00:30:42;101493.78;;;7.58;93.08
36222;BME280;22266;52.340;4.962;2023-12-20T00:33:09;101500.13;;;7.57;92.92
36222;BME280;22266;52.340;4.962;2023-12-20T00:35:36;101492.78;;;7.59;92.64
36222;BME280;22266;52.340;4.962;2023-12-20T00:38:02;101493.44;;;7.61;92.82
36222;BME280;22266;52.340;4.962;2023-12-20T00:40:31;101482.91;;;7.59;92.89
36222;BME280;22266;52.340;4.962;2023-12-20T00:42:57;101489.91;;;7.60;92.50
36222;BME280;22266;52.340;4.962;2023-12-20T00:45:24;101482.06;;;7.59;92.66
36222;BME280;22266;52.340;4.962;2023-12-20T00:47:50;101488.44;;;7.58;92.09
36222;BME280;22266;52.340;4.962;2023-12-20T00:50:17;101486.41;;;7.60;91.91
36222;BME280;22266;52.340;4.962;2023-12-20T00:52:44;101486.56;;;7.58;92.29
36222;BME280;22266;52.340;4.962;2023-12-20T00:55:10;101486.41;;;7.60;92.40
36222;BME280;22266;52.340;4.962;2023-12-20T00:57:37;101489.09;;;7.60;92.46
36222;BME280;22266;52.340;4.962;2023-12-20T01:00:05;101490.63;;;7.62;92.66
36222;BME280;22266;52.340;4.962;2023-12-20T01:02:32;101501.34;;;7.62;91.77
36222;BME280;22266;52.340;4.962;2023-12-20T01:04:58;101491.53;;;7.53;91.94
36222;BME280;22266;52.340;4.962;2023-12-20T01:07:25;101487.06;;;7.54;91.92
36222;BME280;22266;52.340;4.962;2023-12-20T01:09:51;101484.38;;;7.54;91.79
36222;BME280;22266;52.340;4.962;2023-12-20T01:12:18;101482.19;;;7.57;91.84
36222;BME280;22266;52.340;4.962;2023-12-20T01:14:46;101480.38;;;7.58;91.91
36222;BME280;22266;52.340;4.962;2023-12-20T01:17:12;101479.22;;;7.60;91.88
36222;BME280;22266;52.340;4.962;2023-12-20T01:19:39;101484.03;;;7.57;91.77
36222;BME280;22266;52.340;4.962;2023-12-20T01:22:06;101489.88;;;7.52;92.04
36222;BME280;22266;52.340;4.962;2023-12-20T01:24:32;101489.41;;;7.57;91.32
36222;BME280;22266;52.340;4.962;2023-12-20T01:26:59;101480.00;;;7.53;91.46
36222;BME280;22266;52.340;4.962;2023-12-20T01:29:25;101479.03;;;7.54;91.59
36222;BME280;22266;52.340;4.962;2023-12-20T01:31:51;101476.34;;;7.54;91.49
36222;BME280;22266;52.340;4.962;2023-12-20T01:34:18;101480.38;;;7.58;91.74
36222;BME280;22266;52.340;4.962;2023-12-20T01:36:45;101480.69;;;7.55;90.69
36222;BME280;22266;52.340;4.962;2023-12-20T01:39:11;101469.97;;;7.55;91.12
36222;BME280;22266;52.340;4.962;2023-12-20T01:41:53;101472.50;;;7.56;91.34
36222;BME280;22266;52.340;4.962;2023-12-20T01:44:19;101475.03;;;7.58;91.30
36222;BME280;22266;52.340;4.962;2023-12-20T01:46:46;101465.50;;;7.63;92.08
36222;BME280;22266;52.340;4.962;2023-12-20T01:49:14;101468.50;;;7.60;91.15
36222;BME280;22266;52.340;4.962;2023-12-20T01:51:42;101462.13;;;7.61;91.11
36222;BME280;22266;52.340;4.962;2023-12-20T01:54:09;101450.09;;;7.65;91.31
36222;BME280;22266;52.340;4.962;2023-12-20T01:56:35;101463.63;;;7.56;91.12
36222;BME280;22266;52.340;4.962;2023-12-20T01:59:02;101464.25;;;7.50;91.88
36222;BME280;22266;52.340;4.962;2023-12-20T02:01:30;101469.63;;;7.50;92.09
36222;BME280;22266;52.340;4.962;2023-12-20T02:03:57;101464.94;;;7.52;91.52
36222;BME280;22266;52.340;4.962;2023-12-20T02:06:24;101467.91;;;7.49;91.24
36222;BME280;22266;52.340;4.962;2023-12-20T02:08:55;101472.13;;;7.51;91.22
36222;BME280;22266;52.340;4.962;2023-12-20T02:11:21;101475.28;;;7.47;90.80
36222;BME280;22266;52.340;4.962;2023-12-20T02:13:48;101467.09;;;7.48;90.85
36222;BME280;22266;52.340;4.962;2023-12-20T02:16:15;101466.56;;;7.44;90.96
36222;BME280;22266;52.340;4.962;2023-12-20T02:18:42;101465.94;;;7.51;90.66
36222;BME280;22266;52.340;4.962;2023-12-20T02:21:10;101464.09;;;7.51;90.60
36222;BME280;22266;52.340;4.962;2023-12-20T02:23:36;101454.88;;;7.46;91.00
36222;BME280;22266;52.340;4.962;2023-12-20T02:26:04;101457.16;;;7.40;91.09
36222;BME280;22266;52.340;4.962;2023-12-20T02:28:31;101458.69;;;7.43;90.47
36222;BME280;22266;52.340;4.962;2023-12-20T02:30:58;101455.06;;;7.52;90.30
36222;BME280;22266;52.340;4.962;2023-12-20T02:33:25;101461.59;;;7.50;90.17
36222;BME280;22266;52.340;4.962;2023-12-20T02:35:51;101445.16;;;7.53;90.50
36222;BME280;22266;52.340;4.962;2023-12-20T02:38:19;101456.41;;;7.56;90.14
36222;BME280;22266;52.340;4.962;2023-12-20T02:40:45;101448.53;;;7.55;90.27
36222;BME280;22266;52.340;4.962;2023-12-20T02:43:15;101440.84;;;7.60;90.71
36222;BME280;22266;52.340;4.962;2023-12-20T02:45:42;101448.22;;;7.58;90.41
36222;BME280;22266;52.340;4.962;2023-12-20T02:48:09;101439.31;;;7.57;90.45
36222;BME280;22266;52.340;4.962;2023-12-20T02:50:35;101434.34;;;7.62;90.22
36222;BME280;22266;52.340;4.962;2023-12-20T02:53:02;101433.97;;;7.57;89.98
36222;BME280;22266;52.340;4.962;2023-12-20T02:55:28;101416.53;;;7.53;90.37
36222;BME280;22266;52.340;4.962;2023-12-20T02:57:55;101420.09;;;7.54;89.41
36222;BME280;22266;52.340;4.962;2023-12-20T03:00:21;101411.56;;;7.58;89.80
36222;BME280;22266;52.340;4.962;2023-12-20T03:02:48;101416.91;;;7.58;90.01
36222;BME280;22266;52.340;4.962;2023-12-20T03:05:14;101410.38;;;7.61;89.89
36222;BME280;22266;52.340;4.962;2023-12-20T03:07:41;101409.69;;;7.51;89.80
36222;BME280;22266;52.340;4.962;2023-12-20T03:10:08;101406.16;;;7.50;89.14
36222;BME280;22266;52.340;4.962;2023-12-20T03:12:45;101409.50;;;7.52;89.46
36222;BME280;22266;52.340;4.962;2023-12-20T03:15:12;101403.81;;;7.47;89.77
36222;BME280;22266;52.340;4.962;2023-12-20T03:17:38;101400.44;;;7.45;89.20
36222;BME280;22266;52.340;4.962;2023-12-20T03:20:06;101419.69;;;7.49;89.24
36222;BME280;22266;52.340;4.962;2023-12-20T03:22:32;101405.34;;;7.50;89.16
36222;BME280;22266;52.340;4.962;2023-12-20T03:24:59;101401.41;;;7.36;89.41
36222;BME280;22266;52.340;4.962;2023-12-20T03:27:26;101406.25;;;7.40;89.31
36222;BME280;22266;52.340;4.962;2023-12-20T03:29:52;101412.81;;;7.38;89.56
36222;BME280;22266;52.340;4.962;2023-12-20T03:32:18;101413.47;;;7.40;89.04
36222;BME280;22266;52.340;4.962;2023-12-20T03:34:45;101408.13;;;7.40;89.51
36222;BME280;22266;52.340;4.962;2023-12-20T03:37:12;101425.00;;;7.40;89.13
36222;BME280;22266;52.340;4.962;2023-12-20T03:39:38;101436.13;;;7.46;89.67
36222;BME280;22266;52.340;4.962;2023-12-20T03:42:05;101438.41;;;7.40;89.75
36222;BME280;22266;52.340;4.962;2023-12-20T03:44:31;101429.41;;;7.41;90.21
36222;BME280;22266;52.340;4.962;2023-12-20T03:46:58;101425.41;;;7.46;89.67
36222;BME280;22266;52.340;4.962;2023-12-20T03:49:24;101424.41;;;7.47;89.29
36222;BME280;22266;52.340;4.962;2023-12-20T03:51:51;101419.88;;;7.47;89.46
36222;BME280;22266;52.340;4.962;2023-12-20T03:54:17;101419.34;;;7.43;89.76
36222;BME280;22266;52.340;4.962;2023-12-20T03:56:44;101426.72;;;7.41;89.49
36222;BME280;22266;52.340;4.962;2023-12-20T03:59:10;101406.66;;;7.46;89.27
36222;BME280;22266;52.340;4.962;2023-12-20T04:01:37;101405.28;;;7.41;89.60
36222;BME280;22266;52.340;4.962;2023-12-20T04:04:03;101407.09;;;7.41;89.89
36222;BME280;22266;52.340;4.962;2023-12-20T04:06:30;101413.16;;;7.43;89.88
36222;BME280;22266;52.340;4.962;2023-12-20T04:08:57;101401.25;;;7.37;89.59
36222;BME280;22266;52.340;4.962;2023-12-20T04:11:23;101398.06;;;7.34;89.62
36222;BME280;22266;52.340;4.962;2023-12-20T04:13:50;101399.56;;;7.36;89.92
36222;BME280;22266;52.340;4.962;2023-12-20T04:16:16;101394.94;;;7.47;89.73
36222;BME280;22266;52.340;4.962;2023-12-20T04:18:43;101394.41;;;7.43;89.10
36222;BME280;22266;52.340;4.962;2023-12-20T04:21:09;101393.09;;;7.47;89.33
36222;BME280;22266;52.340;4.962;2023-12-20T04:23:36;101394.44;;;7.51;89.40
36222;BME280;22266;52.340;4.962;2023-12-20T04:26:03;101396.59;;;7.48;89.55
36222;BME280;22266;52.340;4.962;2023-12-20T04:28:29;101397.09;;;7.43;89.22
36222;BME280;22266;52.340;4.962;2023-12-20T04:30:58;101397.28;;;7.50;89.18
36222;BME280;22266;52.340;4.962;2023-12-20T04:33:25;101384.00;;;7.40;89.38
36222;BME280;22266;52.340;4.962;2023-12-20T04:35:52;101387.72;;;7.47;89.39
36222;BME280;22266;52.340;4.962;2023-12-20T04:38:18;101387.41;;;7.50;89.12
36222;BME280;22266;52.340;4.962;2023-12-20T04:40:45;101384.34;;;7.45;88.91
36222;BME280;22266;52.340;4.962;2023-12-20T04:43:11;101370.13;;;7.44;89.33
36222;BME280;22266;52.340;4.962;2023-12-20T04:45:38;101363.41;;;7.40;89.02
36222;BME280;22266;52.340;4.962;2023-12-20T04:48:05;101363.09;;;7.43;88.70
36222;BME280;22266;52.340;4.962;2023-12-20T04:50:31;101375.66;;;7.43;88.80
36222;BME280;22266;52.340;4.962;2023-12-20T04:52:58;101373.81;;;7.43;88.46
36222;BME280;22266;52.340;4.962;2023-12-20T04:55:25;101369.16;;;7.46;88.60
36222;BME280;22266;52.340;4.962;2023-12-20T04:57:51;101373.31;;;7.48;88.74
36222;BME280;22266;52.340;4.962;2023-12-20T05:00:18;101374.84;;;7.51;88.83
36222;BME280;22266;52.340;4.962;2023-12-20T05:02:45;101378.84;;;7.47;88.50
36222;BME280;22266;52.340;4.962;2023-12-20T05:05:11;101382.38;;;7.47;88.67
36222;BME280;22266;52.340;4.962;2023-12-20T05:07:38;101383.72;;;7.51;88.67
36222;BME280;22266;52.340;4.962;2023-12-20T05:10:05;101386.41;;;7.51;88.46
36222;BME280;22266;52.340;4.962;2023-12-20T05:12:32;101383.56;;;7.53;88.17
36222;BME280;22266;52.340;4.962;2023-12-20T05:14:58;101386.41;;;7.51;88.61
36222;BME280;22266;52.340;4.962;2023-12-20T05:17:25;101395.28;;;7.52;88.87
36222;BME280;22266;52.340;4.962;2023-12-20T05:19:51;101389.59;;;7.55;88.52
36222;BME280;22266;52.340;4.962;2023-12-20T05:22:21;101384.06;;;7.56;88.60
36222;BME280;22266;52.340;4.962;2023-12-20T05:24:48;101382.72;;;7.52;88.97
36222;BME280;22266;52.340;4.962;2023-12-20T05:27:14;101379.91;;;7.54;88.21
36222;BME280;22266;52.340;4.962;2023-12-20T05:29:41;101375.53;;;7.53;88.63
36222;BME280;22266;52.340;4.962;2023-12-20T05:32:07;101383.06;;;7.57;88.85
36222;BME280;22266;52.340;4.962;2023-12-20T05:34:33;101379.72;;;7.55;88.35
36222;BME280;22266;52.340;4.962;2023-12-20T05:37:00;101379.41;;;7.58;88.33
36222;BME280;22266;52.340;4.962;2023-12-20T05:39:28;101371.38;;;7.58;88.04
36222;BME280;22266;52.340;4.962;2023-12-20T05:41:54;101373.22;;;7.58;87.87
36222;BME280;22266;52.340;4.962;2023-12-20T05:44:21;101373.72;;;7.61;88.17
36222;BME280;22266;52.340;4.962;2023-12-20T05:46:47;101371.38;;;7.58;88.06
36222;BME280;22266;52.340;4.962;2023-12-20T05:49:14;101372.38;;;7.65;87.53
36222;BME280;22266;52.340;4.962;2023-12-20T05:51:41;101379.09;;;7.69;87.09
36222;BME280;22266;52.340;4.962;2023-12-20T05:54:08;101364.72;;;7.71;87.31
36222;BME280;22266;52.340;4.962;2023-12-20T05:56:35;101376.75;;;7.66;87.78
36222;BME280;22266;52.340;4.962;2023-12-20T05:59:02;101376.94;;;7.73;87.27
36222;BME280;22266;52.340;4.962;2023-12-20T06:01:28;101376.09;;;7.73;87.35
36222;BME280;22266;52.340;4.962;2023-12-20T06:03:55;101373.28;;;7.74;87.60
36222;BME280;22266;52.340;4.962;2023-12-20T06:06:22;101368.41;;;7.78;87.38
36222;BME280;22266;52.340;4.962;2023-12-20T06:08:48;101371.44;;;7.75;87.17
36222;BME280;22266;52.340;4.962;2023-12-20T06:11:14;101366.38;;;7.63;87.71
36222;BME280;22266;52.340;4.962;2023-12-20T06:13:41;101359.97;;;7.56;87.61
36222;BME280;22266;52.340;4.962;2023-12-20T06:16:08;101364.00;;;7.60;87.83
36222;BME280;22266;52.340;4.962;2023-12-20T06:18:34;101352.13;;;7.63;87.62
36222;BME280;22266;52.340;4.962;2023-12-20T06:21:03;101375.44;;;7.71;88.01
36222;BME280;22266;52.340;4.962;2023-12-20T06:23:30;101362.88;;;7.71;87.57
36222;BME280;22266;52.340;4.962;2023-12-20T06:25:56;101367.88;;;7.66;88.00
36222;BME280;22266;52.340;4.962;2023-12-20T06:28:23;101366.38;;;7.63;87.72
36222;BME280;22266;52.340;4.962;2023-12-20T06:30:49;101354.59;;;7.56;88.04
36222;BME280;22266;52.340;4.962;2023-12-20T06:33:18;101349.78;;;7.60;88.37
36222;BME280;22266;52.340;4.962;2023-12-20T06:35:45;101351.84;;;7.74;88.12
36222;BME280;22266;52.340;4.962;2023-12-20T06:38:11;101354.84;;;7.79;87.37
36222;BME280;22266;52.340;4.962;2023-12-20T06:40:38;101356.00;;;7.77;87.87
36222;BME280;22266;52.340;4.962;2023-12-20T06:43:04;101356.81;;;7.69;87.81
36222;BME280;22266;52.340;4.962;2023-12-20T06:45:46;101358.03;;;7.75;88.00
36222;BME280;22266;52.340;4.962;2023-12-20T06:48:13;101363.53;;;7.73;88.19
36222;BME280;22266;52.340;4.962;2023-12-20T06:50:40;101357.84;;;7.76;87.85
36222;BME280;22266;52.340;4.962;2023-12-20T06:53:06;101351.34;;;7.79;87.96
36222;BME280;22266;52.340;4.962;2023-12-20T06:55:35;101349.50;;;7.79;87.59
36222;BME280;22266;52.340;4.962;2023-12-20T06:58:02;101352.66;;;7.75;87.53
36222;BME280;22266;52.340;4.962;2023-12-20T07:00:29;101350.97;;;7.74;87.80
36222;BME280;22266;52.340;4.962;2023-12-20T07:02:56;101351.34;;;7.79;87.71
36222;BME280;22266;52.340;4.962;2023-12-20T07:05:23;101347.31;;;7.75;87.70
36222;BME280;22266;52.340;4.962;2023-12-20T07:07:49;101345.81;;;7.80;88.00
36222;BME280;22266;52.340;4.962;2023-12-20T07:10:16;101348.31;;;7.82;87.81
36222;BME280;22266;52.340;4.962;2023-12-20T07:12:43;101337.13;;;7.86;87.68
36222;BME280;22266;52.340;4.962;2023-12-20T07:15:10;101337.97;;;7.87;87.41
36222;BME280;22266;52.340;4.962;2023-12-20T07:17:37;101329.91;;;7.87;87.67
36222;BME280;22266;52.340;4.962;2023-12-20T07:20:04;101330.06;;;7.85;87.91
36222;BME280;22266;52.340;4.962;2023-12-20T07:22:33;101331.78;;;7.86;87.86
36222;BME280;22266;52.340;4.962;2023-12-20T07:25:00;101323.34;;;7.81;87.88
36222;BME280;22266;52.340;4.962;2023-12-20T07:27:27;101331.06;;;7.84;87.64
36222;BME280;22266;52.340;4.962;2023-12-20T07:29:53;101330.06;;;7.85;87.76
36222;BME280;22266;52.340;4.962;2023-12-20T07:32:20;101322.88;;;7.86;87.76
36222;BME280;22266;52.340;4.962;2023-12-20T07:34:46;101332.28;;;7.90;87.52
36222;BME280;22266;52.340;4.962;2023-12-20T07:37:13;101339.28;;;7.83;88.33
36222;BME280;22266;52.340;4.962;2023-12-20T07:39:41;101331.91;;;7.77;88.05
36222;BME280;22266;52.340;4.962;2023-12-20T07:42:08;101340.78;;;7.85;87.99
36222;BME280;22266;52.340;4.962;2023-12-20T07:44:35;101353.88;;;7.88;87.73
36222;BME280;22266;52.340;4.962;2023-12-20T07:47:05;101359.91;;;7.90;87.32
36222;BME280;22266;52.340;4.962;2023-12-20T07:49:31;101360.91;;;7.89;87.61
36222;BME280;22266;52.340;4.962;2023-12-20T07:51:58;101364.44;;;7.90;87.23
36222;BME280;22266;52.340;4.962;2023-12-20T07:54:25;101372.66;;;7.97;87.58
36222;BME280;22266;52.340;4.962;2023-12-20T07:56:51;101374.66;;;7.95;87.20
36222;BME280;22266;52.340;4.962;2023-12-20T07:59:17;101374.16;;;7.91;87.81
36222;BME280;22266;52.340;4.962;2023-12-20T08:01:57;101376.00;;;7.90;87.45
36222;BME280;22266;52.340;4.962;2023-12-20T08:04:24;101374.16;;;7.91;87.57
36222;BME280;22266;52.340;4.962;2023-12-20T08:06:51;101366.25;;;7.89;88.02
36222;BME280;22266;52.340;4.962;2023-12-20T08:09:17;101363.25;;;7.92;88.22
36222;BME280;22266;52.340;4.962;2023-12-20T08:11:47;101357.41;;;7.97;87.69
36222;BME280;22266;52.340;4.962;2023-12-20T08:14:15;101356.91;;;8.02;87.30
36222;BME280;22266;52.340;4.962;2023-12-20T08:16:42;101350.06;;;8.07;87.74
36222;BME280;22266;52.340;4.962;2023-12-20T08:19:08;101364.13;;;8.09;87.06
36222;BME280;22266;52.340;4.962;2023-12-20T08:21:35;101359.78;;;8.08;87.48
36222;BME280;22266;52.340;4.962;2023-12-20T08:24:04;101352.22;;;8.04;87.72
36222;BME280;22266;52.340;4.962;2023-12-20T08:26:32;101356.25;;;8.08;87.25
36222;BME280;22266;52.340;4.962;2023-12-20T08:28:59;101345.03;;;8.04;88.03
36222;BME280;22266;52.340;4.962;2023-12-20T08:31:28;101354.06;;;8.03;87.51
36222;BME280;22266;52.340;4.962;2023-12-20T08:33:55;101350.56;;;8.11;87.64
36222;BME280;22266;52.340;4.962;2023-12-20T08:36:22;101349.22;;;8.15;87.39
36222;BME280;22266;52.340;4.962;2023-12-20T08:38:50;101362.66;;;8.23;87.06
36222;BME280;22266;52.340;4.962;2023-12-20T08:41:17;101359.28;;;8.13;87.45
36222;BME280;22266;52.340;4.962;2023-12-20T08:43:44;101368.16;;;8.13;87.30
36222;BME280;22266;52.340;4.962;2023-12-20T08:46:10;101360.44;;;8.02;87.68
36222;BME280;22266;52.340;4.962;2023-12-20T08:48:38;101374.00;;;8.09;87.10
36222;BME280;22266;52.340;4.962;2023-12-20T08:51:04;101380.38;;;8.08;87.37
36222;BME280;22266;52.340;4.962;2023-12-20T08:53:33;101367.63;;;8.10;87.22
36222;BME280;22266;52.340;4.962;2023-12-20T08:56:00;101363.63;;;8.14;87.02
36222;BME280;22266;52.340;4.962;2023-12-20T08:58:28;101362.97;;;8.12;86.93
36222;BME280;22266;52.340;4.962;2023-12-20T09:00:54;101357.09;;;8.16;87.13
36222;BME280;22266;52.340;4.962;2023-12-20T09:03:21;101361.97;;;8.21;87.07
36222;BME280;22266;52.340;4.962;2023-12-20T09:05:47;101356.94;;;8.18;87.26
36222;BME280;22266;52.340;4.962;2023-12-20T09:08:14;101332.31;;;8.14;87.40
36222;BME280;22266;52.340;4.962;2023-12-20T09:10:40;101337.81;;;8.13;87.70
36222;BME280;22266;52.340;4.962;2023-12-20T09:13:07;101338.16;;;8.18;87.71
36222;BME280;22266;52.340;4.962;2023-12-20T09:15:33;101342.88;;;8.24;87.36
36222;BME280;22266;52.340;4.962;2023-12-20T09:18:02;101350.06;;;8.24;87.55
36222;BME280;22266;52.340;4.962;2023-12-20T09:20:30;101342.69;;;8.17;87.22
36222;BME280;22266;52.340;4.962;2023-12-20T09:22:57;101353.91;;;8.21;87.40
36222;BME280;22266;52.340;4.962;2023-12-20T09:25:24;101356.59;;;8.29;87.45
36222;BME280;22266;52.340;4.962;2023-12-20T09:27:52;101349.38;;;8.22;87.73
36222;BME280;22266;52.340;4.962;2023-12-20T09:30:19;101345.53;;;8.24;87.43
36222;BME280;22266;52.340;4.962;2023-12-20T09:32:53;101349.91;;;8.17;87.80
36222;BME280;22266;52.340;4.962;2023-12-20T09:35:20;101362.28;;;8.26;87.49
36222;BME280;22266;52.340;4.962;2023-12-20T09:37:48;101358.13;;;8.24;87.28
36222;BME280;22266;52.340;4.962;2023-12-20T09:40:18;101351.94;;;8.31;87.79
36222;BME280;22266;52.340;4.962;2023-12-20T09:42:56;101355.78;;;8.29;87.31
36222;BME280;22266;52.340;4.962;2023-12-20T09:45:24;101355.97;;;8.35;86.85
36222;BME280;22266;52.340;4.962;2023-12-20T09:47:54;101372.41;;;8.40;87.21
36222;BME280;22266;52.340;4.962;2023-12-20T09:50:21;101363.84;;;8.37;86.90
36222;BME280;22266;52.340;4.962;2023-12-20T09:52:52;101366.81;;;8.26;87.09
36222;BME280;22266;52.340;4.962;2023-12-20T09:55:20;101376.91;;;8.32;87.81
36222;BME280;22266;52.340;4.962;2023-12-20T09:57:49;101379.72;;;8.30;87.60
36222;BME280;22266;52.340;4.962;2023-12-20T10:00:16;101372.88;;;8.36;87.20
36222;BME280;22266;52.340;4.962;2023-12-20T10:02:59;101366.88;;;8.42;86.57
36222;BME280;22266;52.340;4.962;2023-12-20T10:05:30;101376.72;;;8.33;86.81
36222;BME280;22266;52.340;4.962;2023-12-20T10:07:59;101367.34;;;8.29;87.34
36222;BME280;22266;52.340;4.962;2023-12-20T10:10:27;101372.75;;;8.37;87.13
36222;BME280;22266;52.340;4.962;2023-12-20T10:13:10;101367.53;;;8.36;86.64
36222;BME280;22266;52.340;4.962;2023-12-20T10:15:37;101356.78;;;8.36;86.63
36222;BME280;22266;52.340;4.962;2023-12-20T10:18:05;101367.53;;;8.36;86.85
36222;BME280;22266;52.340;4.962;2023-12-20T10:20:32;101368.91;;;8.40;87.08
36222;BME280;22266;52.340;4.962;2023-12-20T10:22:59;101363.69;;;8.47;87.13
36222;BME280;22266;52.340;4.962;2023-12-20T10:25:27;101370.25;;;8.44;87.15
36222;BME280;22266;52.340;4.962;2023-12-20T10:28:20;101369.41;;;8.52;86.90
36222;BME280;22266;52.340;4.962;2023-12-20T10:30:49;101365.53;;;8.62;85.71
36222;BME280;22266;52.340;4.962;2023-12-20T10:33:30;101374.44;;;8.63;85.43
36222;BME280;22266;52.340;4.962;2023-12-20T10:35:59;101361.50;;;8.66;84.79
36222;BME280;22266;52.340;4.962;2023-12-20T10:38:25;101350.09;;;8.73;84.32
36222;BME280;22266;52.340;4.962;2023-12-20T10:40:57;101348.75;;;8.69;84.57
36222;BME280;22266;52.340;4.962;2023-12-20T10:43:28;101361.84;;;8.80;84.63
36222;BME280;22266;52.340;4.962;2023-12-20T10:45:56;101353.78;;;8.88;84.29
36222;BME280;22266;52.340;4.962;2023-12-20T10:48:23;101343.38;;;8.77;84.73
36222;BME280;22266;52.340;4.962;2023-12-20T10:50:56;101341.34;;;8.79;84.48
36222;BME280;22266;52.340;4.962;2023-12-20T10:53:24;101339.50;;;8.87;84.72
36222;BME280;22266;52.340;4.962;2023-12-20T10:55:52;101334.63;;;8.91;84.45
36222;BME280;22266;52.340;4.962;2023-12-20T10:58:21;101328.25;;;9.00;83.81
36222;BME280;22266;52.340;4.962;2023-12-20T11:00:51;101324.84;;;9.06;83.50
36222;BME280;22266;52.340;4.962;2023-12-20T11:03:22;101335.25;;;9.09;83.38
36222;BME280;22266;52.340;4.962;2023-12-20T11:05:59;101327.19;;;9.09;83.69
36222;BME280;22266;52.340;4.962;2023-12-20T11:08:38;101339.78;;;9.09;83.28
36222;BME280;22266;52.340;4.962;2023-12-20T11:11:32;101330.06;;;9.08;83.35
36222;BME280;22266;52.340;4.962;2023-12-20T11:14:07;101327.06;;;8.95;83.96
36222;BME280;22266;52.340;4.962;2023-12-20T11:16:38;101331.25;;;8.97;83.57
36222;BME280;22266;52.340;4.962;2023-12-20T11:19:17;101327.22;;;9.01;83.79
36222;BME280;22266;52.340;4.962;2023-12-20T11:21:45;101334.94;;;9.04;84.13
36222;BME280;22266;52.340;4.962;2023-12-20T11:24:12;101327.25;;;8.85;84.77
36222;BME280;22266;52.340;4.962;2023-12-20T11:26:46;101335.00;;;8.80;84.92
36222;BME280;22266;52.340;4.962;2023-12-20T11:29:32;101322.91;;;8.84;84.99
36222;BME280;22266;52.340;4.962;2023-12-20T11:32:01;101326.75;;;8.81;85.00
36222;BME280;22266;52.340;4.962;2023-12-20T11:34:31;101319.84;;;8.95;84.43
36222;BME280;22266;52.340;4.962;2023-12-20T11:36:59;101317.66;;;8.99;84.24
36222;BME280;22266;52.340;4.962;2023-12-20T11:39:27;101312.31;;;8.90;85.04
36222;BME280;22266;52.340;4.962;2023-12-20T11:41:56;101294.72;;;8.88;85.19
36222;BME280;22266;52.340;4.962;2023-12-20T11:44:25;101297.72;;;8.93;85.20
36222;BME280;22266;52.340;4.962;2023-12-20T11:46:51;101305.44;;;8.96;85.04
36222;BME280;22266;52.340;4.962;2023-12-20T11:49:18;101300.56;;;8.91;84.75
36222;BME280;22266;52.340;4.962;2023-12-20T11:51:44;101294.34;;;8.91;84.90
36222;BME280;22266;52.340;4.962;2023-12-20T11:54:11;101294.53;;;8.89;85.13
36222;BME280;22266;52.340;4.962;2023-12-20T11:56:38;101295.03;;;8.93;85.22
36222;BME280;22266;52.340;4.962;2023-12-20T11:59:04;101303.56;;;8.97;84.83
36222;BME280;22266;52.340;4.962;2023-12-20T12:01:49;101300.69;;;8.98;85.29
36222;BME280;22266;52.340;4.962;2023-12-20T12:04:16;101306.41;;;8.95;85.33
36222;BME280;22266;52.340;4.962;2023-12-20T12:06:46;101304.22;;;8.99;85.21
36222;BME280;22266;52.340;4.962;2023-12-20T12:09:13;101309.59;;;8.99;85.24
36222;BME280;22266;52.340;4.962;2023-12-20T12:11:40;101307.44;;;8.94;85.13
36222;BME280;22266;52.340;4.962;2023-12-20T12:14:07;101302.25;;;8.93;85.61
36222;BME280;22266;52.340;4.962;2023-12-20T12:16:34;101287.97;;;8.92;85.09
36222;BME280;22266;52.340;4.962;2023-12-20T12:19:00;101279.59;;;8.87;85.91
36222;BME280;22266;52.340;4.962;2023-12-20T12:21:27;101275.91;;;8.88;86.09
36222;BME280;22266;52.340;4.962;2023-12-20T12:24:07;101267.69;;;8.89;86.13
36222;BME280;22266;52.340;4.962;2023-12-20T12:26:33;101266.00;;;8.88;85.86
36222;BME280;22266;52.340;4.962;2023-12-20T12:28:59;101258.97;;;8.87;85.84
36222;BME280;22266;52.340;4.962;2023-12-20T12:31:26;101257.97;;;8.88;86.18
36222;BME280;22266;52.340;4.962;2023-12-20T12:33:54;101253.41;;;8.89;85.86
36222;BME280;22266;52.340;4.962;2023-12-20T12:36:21;101249.56;;;8.91;86.12
36222;BME280;22266;52.340;4.962;2023-12-20T12:38:48;101241.16;;;8.86;85.77
36222;BME280;22266;52.340;4.962;2023-12-20T12:41:14;101246.69;;;8.93;85.91
36222;BME280;22266;52.340;4.962;2023-12-20T12:43:41;101259.66;;;8.81;85.90
36222;BME280;22266;52.340;4.962;2023-12-20T12:46:08;101254.94;;;8.91;85.64
36222;BME280;22266;52.340;4.962;2023-12-20T12:48:34;101245.03;;;8.92;85.75
36222;BME280;22266;52.340;4.962;2023-12-20T12:51:01;101242.16;;;8.94;85.52
36222;BME280;22266;52.340;4.962;2023-12-20T12:53:28;101246.91;;;8.83;85.74
36222;BME280;22266;52.340;4.962;2023-12-20T12:55:54;101234.16;;;8.77;85.96
36222;BME280;22266;52.340;4.962;2023-12-20T12:58:21;101238.66;;;8.85;85.63
36222;BME280;22266;52.340;4.962;2023-12-20T13:00:48;101229.09;;;8.82;85.60
36222;BME280;22266;52.340;4.962;2023-12-20T13:03:15;101228.75;;;8.85;85.65